createdAt,value
2023-06-26T00:00:28.933Z,101162.00
2023-06-26T00:02:55.617Z,101167.75
2023-06-26T00:05:22.098Z,101169.44
2023-06-26T00:07:48.626Z,101175.13
2023-06-26T00:10:15.070Z,101166.50
2023-06-26T00:12:41.534Z,101162.31
2023-06-26T00:15:09.123Z,101169.72
2023-06-26T00:17:38.251Z,101166.59
2023-06-26T00:20:06.449Z,101166.06
2023-06-26T00:22:33.134Z,101163.50
2023-06-26T00:24:59.605Z,101163.97
2023-06-26T00:27:26.760Z,101166.75
2023-06-26T00:29:53.974Z,101162.56
2023-06-26T00:32:20.519Z,101165.22
2023-06-26T00:34:47.924Z,101162.94
2023-06-26T00:37:16.656Z,101161.44
2023-06-26T00:39:43.168Z,101158.59
2023-06-26T00:42:09.904Z,101157.94
2023-06-26T00:44:36.507Z,101165.31
2023-06-26T00:47:03.218Z,101158.47
2023-06-26T00:49:29.724Z,101155.94
2023-06-26T00:51:57.405Z,101151.78
2023-06-26T00:54:24.282Z,101150.66
2023-06-26T00:56:50.756Z,101151.78
2023-06-26T00:59:17.320Z,101148.56
2023-06-26T01:01:44.059Z,101144.38
2023-06-26T01:04:18.658Z,101146.59
2023-06-26T01:06:51.245Z,101142.75
2023-06-26T01:09:20.268Z,101131.06
2023-06-26T01:11:47.775Z,101130.13
2023-06-26T01:14:15.548Z,101136.66
2023-06-26T01:16:48.632Z,101130.59
2023-06-26T01:19:27.966Z,101133.72
2023-06-26T01:22:35.723Z,101122.22
2023-06-26T01:25:21.773Z,101131.53
2023-06-26T01:27:51.185Z,101133.19
2023-06-26T01:30:19.000Z,101116.47
2023-06-26T01:32:46.455Z,101118.31
2023-06-26T01:35:14.531Z,101119.31
2023-06-26T01:37:41.053Z,101115.28
2023-06-26T01:40:09.086Z,101112.22
2023-06-26T01:42:35.754Z,101116.41
2023-06-26T01:45:22.649Z,101110.63
2023-06-26T01:47:52.222Z,101108.97
2023-06-26T01:50:23.767Z,101107.00
2023-06-26T01:53:17.869Z,101102.47
2023-06-26T01:55:51.773Z,101097.66
2023-06-26T01:58:21.844Z,101099.97
2023-06-26T02:00:48.492Z,101098.28
2023-06-26T02:03:15.170Z,101089.50
2023-06-26T02:05:41.902Z,101098.97
2023-06-26T02:08:10.078Z,101092.78
2023-06-26T02:10:37.225Z,101097.94
2023-06-26T02:13:03.932Z,101094.25
2023-06-26T02:15:30.403Z,101096.00
2023-06-26T02:17:56.932Z,101095.81
2023-06-26T02:20:23.446Z,101091.94
2023-06-26T02:22:49.911Z,101088.06
2023-06-26T02:25:16.384Z,101092.28
2023-06-26T02:27:43.551Z,101094.63
2023-06-26T02:30:10.480Z,101086.44
2023-06-26T02:32:37.096Z,101086.28
2023-06-26T02:35:03.899Z,101089.34
2023-06-26T02:37:30.368Z,101084.50
2023-06-26T02:39:57.138Z,101079.66
2023-06-26T02:42:23.603Z,101083.81
2023-06-26T02:44:50.069Z,101079.16
2023-06-26T02:47:16.614Z,101078.44
2023-06-26T02:49:44.824Z,101075.78
2023-06-26T02:52:11.772Z,101072.81
2023-06-26T02:54:38.217Z,101081.34
2023-06-26T02:57:05.537Z,101076.19
2023-06-26T02:59:33.903Z,101075.34
2023-06-26T03:02:00.481Z,101069.19
2023-06-26T03:04:32.349Z,101074.84
2023-06-26T03:07:00.636Z,101075.50
2023-06-26T03:09:27.318Z,101071.84
2023-06-26T03:11:54.168Z,101063.16
2023-06-26T03:14:21.314Z,101063.94
2023-06-26T03:16:47.916Z,101059.75
2023-06-26T03:19:14.633Z,101065.81
2023-06-26T03:22:01.096Z,101059.59
2023-06-26T03:24:28.129Z,101063.06
2023-06-26T03:26:54.655Z,101069.13
2023-06-26T03:29:21.228Z,101061.78
2023-06-26T03:31:48.849Z,101054.94
2023-06-26T03:34:15.611Z,101057.94
2023-06-26T03:36:42.442Z,101049.75
2023-06-26T03:39:09.515Z,101053.75
2023-06-26T03:41:36.296Z,101052.75
2023-06-26T03:44:03.152Z,101046.72
2023-06-26T03:46:35.930Z,101049.38
2023-06-26T03:49:02.470Z,101047.72
2023-06-26T03:51:28.970Z,101050.88
2023-06-26T03:53:55.452Z,101049.22
2023-06-26T03:56:22.128Z,101047.91
2023-06-26T03:58:49.347Z,101054.25
2023-06-26T04:01:15.840Z,101057.88
2023-06-26T04:03:43.624Z,101051.53
2023-06-26T04:06:11.828Z,101052.91
2023-06-26T04:08:38.792Z,101057.56
2023-06-26T04:11:06.142Z,101047.81
2023-06-26T04:13:32.590Z,101046.78
2023-06-26T04:15:59.041Z,101042.38
2023-06-26T04:18:25.484Z,101038.72
2023-06-26T04:21:09.976Z,101047.25
2023-06-26T04:23:36.578Z,101041.63
2023-06-26T04:26:03.859Z,101038.59
2023-06-26T04:28:30.415Z,101040.06
2023-06-26T04:30:56.899Z,101032.03
2023-06-26T04:33:24.458Z,101031.31
2023-06-26T04:35:50.949Z,101034.94
2023-06-26T04:38:17.425Z,101035.56
2023-06-26T04:40:43.881Z,101034.91
2023-06-26T04:43:10.516Z,101043.84
2023-06-26T04:45:37.435Z,101035.47
2023-06-26T04:48:04.396Z,101039.88
2023-06-26T04:50:32.082Z,101031.25
2023-06-26T04:52:58.667Z,101035.78
2023-06-26T04:55:25.464Z,101030.94
2023-06-26T04:57:52.205Z,101030.22
2023-06-26T05:00:19.144Z,101024.34
2023-06-26T05:02:46.298Z,101024.66
2023-06-26T05:05:12.865Z,101025.66
2023-06-26T05:07:39.427Z,101022.09
2023-06-26T05:10:06.281Z,101024.72
2023-06-26T05:12:32.756Z,101023.28
2023-06-26T05:14:59.230Z,101026.00
2023-06-26T05:17:25.785Z,101026.50
2023-06-26T05:19:52.287Z,101020.22
2023-06-26T05:22:19.362Z,101022.00
2023-06-26T05:24:47.742Z,101030.94
2023-06-26T05:27:22.051Z,101010.56
2023-06-26T05:29:49.663Z,101018.28
2023-06-26T05:32:18.739Z,101013.66
2023-06-26T05:34:52.318Z,101009.50
2023-06-26T05:37:23.185Z,101006.53
2023-06-26T05:39:49.784Z,101005.09
2023-06-26T05:42:16.669Z,101003.69
2023-06-26T05:44:43.147Z,101002.47
2023-06-26T05:47:09.635Z,100998.78
2023-06-26T05:49:36.230Z,100993.50
2023-06-26T05:52:02.959Z,100991.34
2023-06-26T05:54:29.684Z,101001.66
2023-06-26T05:57:00.390Z,100986.16
2023-06-26T05:59:27.693Z,100981.00
2023-06-26T06:01:54.665Z,100983.25
2023-06-26T06:04:21.148Z,100982.06
2023-06-26T06:06:47.750Z,100979.25
2023-06-26T06:09:14.235Z,100971.88
2023-06-26T06:11:40.853Z,100969.06
2023-06-26T06:14:07.585Z,100971.00
2023-06-26T06:16:34.043Z,100974.97
2023-06-26T06:19:00.513Z,100974.28
2023-06-26T06:21:26.962Z,100969.13
2023-06-26T06:23:53.428Z,100977.44
2023-06-26T06:26:20.012Z,100977.38
2023-06-26T06:28:46.468Z,100970.72
2023-06-26T06:31:12.922Z,100965.13
2023-06-26T06:33:39.365Z,100970.13
2023-06-26T06:36:05.916Z,100976.44
2023-06-26T06:38:32.830Z,100969.94
2023-06-26T06:40:59.311Z,100967.00
2023-06-26T06:43:25.765Z,100962.97
2023-06-26T06:45:52.315Z,100964.97
2023-06-26T06:48:18.812Z,100964.63
2023-06-26T06:50:45.258Z,100962.47
2023-06-26T06:53:12.002Z,100957.22
2023-06-26T06:55:38.453Z,100964.13
2023-06-26T06:58:06.143Z,100968.25
2023-06-26T07:00:32.969Z,100952.41
2023-06-26T07:03:01.323Z,100953.84
2023-06-26T07:05:27.971Z,100956.44
2023-06-26T07:07:54.421Z,100952.44
2023-06-26T07:10:20.853Z,100951.72
2023-06-26T07:12:47.850Z,100953.44
2023-06-26T07:15:14.299Z,100948.63
2023-06-26T07:17:40.853Z,100948.00
2023-06-26T07:20:09.381Z,100946.03
2023-06-26T07:22:40.035Z,100942.03
2023-06-26T07:25:10.231Z,100943.72
2023-06-26T07:27:40.787Z,100944.66
2023-06-26T07:30:10.067Z,100936.03
2023-06-26T07:32:37.056Z,100932.34
2023-06-26T07:35:03.765Z,100935.66
2023-06-26T07:37:30.361Z,100936.09
2023-06-26T07:39:56.948Z,100933.63
2023-06-26T07:42:23.441Z,100932.78
2023-06-26T07:44:49.926Z,100926.19
2023-06-26T07:47:16.581Z,100922.03
2023-06-26T07:49:43.119Z,100917.91
2023-06-26T07:52:12.391Z,100923.69
2023-06-26T07:54:38.970Z,100925.72
2023-06-26T07:57:09.908Z,100919.44
2023-06-26T07:59:36.737Z,100924.81
2023-06-26T08:02:03.532Z,100916.09
2023-06-26T08:04:34.858Z,100911.47
2023-06-26T08:07:02.557Z,100913.22
2023-06-26T08:09:30.360Z,100904.53
2023-06-26T08:11:58.067Z,100912.00
2023-06-26T08:14:24.609Z,100906.97
2023-06-26T08:16:51.643Z,100904.06
2023-06-26T08:19:18.624Z,100895.38
2023-06-26T08:21:46.707Z,100901.63
2023-06-26T08:24:20.158Z,100898.50
2023-06-26T08:26:47.924Z,100908.75
2023-06-26T08:29:14.398Z,100897.44
2023-06-26T08:31:41.653Z,100895.72
2023-06-26T08:34:08.745Z,100895.31
2023-06-26T08:36:35.240Z,100899.78
2023-06-26T08:39:01.733Z,100893.69
2023-06-26T08:41:28.279Z,100879.09
2023-06-26T08:43:54.892Z,100879.84
2023-06-26T08:46:21.360Z,100885.81
2023-06-26T08:48:56.950Z,100886.16
2023-06-26T08:51:27.167Z,100882.75
2023-06-26T08:54:01.759Z,100885.56
2023-06-26T08:56:32.945Z,100875.56
2023-06-26T08:58:59.584Z,100873.91
2023-06-26T09:01:26.447Z,100878.75
2023-06-26T09:03:53.326Z,100877.47
2023-06-26T09:06:20.012Z,100872.56
2023-06-26T09:08:47.075Z,100874.44
2023-06-26T09:11:13.560Z,100868.50
2023-06-26T09:13:40.834Z,100869.72
2023-06-26T09:16:09.164Z,100857.88
2023-06-26T09:18:36.213Z,100852.91
2023-06-26T09:21:09.090Z,100855.41
2023-06-26T09:23:36.578Z,100856.16
2023-06-26T09:26:04.935Z,100854.44
2023-06-26T09:28:34.252Z,100844.72
2023-06-26T09:31:08.946Z,100845.53
2023-06-26T09:33:38.091Z,100844.72
2023-06-26T09:36:20.250Z,100846.84
2023-06-26T09:38:46.701Z,100840.78
2023-06-26T09:41:16.393Z,100836.75
2023-06-26T09:43:52.358Z,100838.78
2023-06-26T09:46:26.926Z,100830.91
2023-06-26T09:49:05.407Z,100834.13
2023-06-26T09:51:33.672Z,100822.56
2023-06-26T09:54:01.188Z,100817.00
2023-06-26T09:56:29.181Z,100818.56
2023-06-26T09:58:58.236Z,100814.53
2023-06-26T10:01:25.850Z,100818.63
2023-06-26T10:03:53.013Z,100815.34
2023-06-26T10:06:23.192Z,100806.53
2023-06-26T10:08:49.821Z,100808.72
2023-06-26T10:11:20.185Z,100806.44
2023-06-26T10:13:50.311Z,100802.69
2023-06-26T10:16:23.371Z,100799.69
2023-06-26T10:18:53.991Z,100791.78
2023-06-26T10:21:23.257Z,100794.94
2023-06-26T10:23:52.844Z,100783.84
2023-06-26T10:26:22.197Z,100786.53
2023-06-26T10:28:53.129Z,100789.25
2023-06-26T10:31:24.116Z,100774.53
2023-06-26T10:33:51.198Z,100771.47
2023-06-26T10:36:19.900Z,100775.06
2023-06-26T10:38:54.494Z,100769.66
2023-06-26T10:41:23.543Z,100766.94
2023-06-26T10:44:00.646Z,100759.34
2023-06-26T10:46:27.957Z,100762.94
2023-06-26T10:48:59.838Z,100756.31
2023-06-26T10:51:30.076Z,100740.69
2023-06-26T10:53:57.654Z,100755.84
2023-06-26T10:56:43.913Z,100750.69
2023-06-26T10:59:19.170Z,100745.97
2023-06-26T11:01:48.070Z,100746.78
2023-06-26T11:04:17.506Z,100747.97
2023-06-26T11:06:46.998Z,100747.28
2023-06-26T11:09:16.604Z,100738.31
2023-06-26T11:11:52.192Z,100739.75
2023-06-26T11:14:20.206Z,100733.44
2023-06-26T11:16:46.928Z,100736.69
2023-06-26T11:19:14.924Z,100732.59
2023-06-26T11:21:41.725Z,100718.22
2023-06-26T11:24:08.748Z,100722.09
2023-06-26T11:26:45.658Z,100728.03
2023-06-26T11:29:13.173Z,100710.75
2023-06-26T11:31:41.433Z,100716.13
2023-06-26T11:34:13.507Z,100710.41
2023-06-26T11:36:43.212Z,100709.94
2023-06-26T11:39:09.791Z,100699.59
2023-06-26T11:41:37.506Z,100696.69
2023-06-26T11:44:05.298Z,100693.25
2023-06-26T11:46:32.863Z,100683.75
2023-06-26T11:48:59.586Z,100684.81
2023-06-26T11:51:29.732Z,100672.88
2023-06-26T11:53:56.138Z,100679.97
2023-06-26T11:56:27.150Z,100661.03
2023-06-26T11:59:03.205Z,100661.47
2023-06-26T12:01:34.072Z,100663.31
2023-06-26T12:04:04.028Z,100661.31
2023-06-26T12:06:32.563Z,100652.94
2023-06-26T12:09:01.539Z,100645.78
2023-06-26T12:11:30.904Z,100641.78
2023-06-26T12:13:58.587Z,100627.03
2023-06-26T12:16:25.415Z,100638.31
2023-06-26T12:18:52.148Z,100628.94
2023-06-26T12:21:38.872Z,100626.22
2023-06-26T12:24:07.339Z,100623.41
2023-06-26T12:26:37.990Z,100616.66
2023-06-26T12:29:08.782Z,100614.41
2023-06-26T12:31:37.222Z,100618.34
2023-06-26T12:34:10.359Z,100620.38
2023-06-26T12:36:49.823Z,100608.56
2023-06-26T12:39:20.691Z,100602.53
2023-06-26T12:41:53.404Z,100597.31
2023-06-26T12:44:25.855Z,100590.16
2023-06-26T12:46:59.122Z,100591.44
2023-06-26T12:49:38.651Z,100587.13
2023-06-26T12:52:07.574Z,100585.94
2023-06-26T12:54:34.968Z,100589.84
2023-06-26T12:57:01.617Z,100583.75
2023-06-26T12:59:28.099Z,100582.72
2023-06-26T13:01:54.665Z,100574.88
2023-06-26T13:04:21.311Z,100570.91
2023-06-26T13:06:47.788Z,100577.63
2023-06-26T13:09:14.293Z,100565.03
2023-06-26T13:11:40.761Z,100569.69
2023-06-26T13:14:11.023Z,100554.63
2023-06-26T13:16:38.368Z,100547.97
2023-06-26T13:19:04.802Z,100548.25
2023-06-26T13:21:31.299Z,100526.38
2023-06-26T13:23:58.290Z,100514.94
2023-06-26T13:26:36.801Z,100513.84
2023-06-26T13:29:04.599Z,100511.84
2023-06-26T13:31:31.223Z,100497.16
2023-06-26T13:33:59.464Z,100484.91
2023-06-26T13:36:26.231Z,100482.72
2023-06-26T13:38:57.170Z,100471.19
2023-06-26T13:41:24.859Z,100475.28
2023-06-26T13:43:51.777Z,100466.94
2023-06-26T13:46:19.166Z,100447.97
2023-06-26T13:48:46.727Z,100440.06
2023-06-26T13:51:13.655Z,100428.53
2023-06-26T13:53:40.187Z,100431.72
2023-06-26T13:56:06.709Z,100489.31
2023-06-26T13:58:35.535Z,100501.88
2023-06-26T14:01:01.975Z,100514.56
2023-06-26T14:03:31.404Z,100531.28
2023-06-26T14:05:57.987Z,100534.31
2023-06-26T14:08:24.531Z,100535.47
2023-06-26T14:10:51.047Z,100640.03
2023-06-26T14:13:17.874Z,100683.75
2023-06-26T14:15:44.965Z,100675.75
2023-06-26T14:18:11.818Z,100678.72
2023-06-26T14:20:38.529Z,100695.09
2023-06-26T14:23:05.264Z,100715.75
2023-06-26T14:25:31.759Z,100751.63
2023-06-26T14:27:59.386Z,100772.84
2023-06-26T14:30:26.073Z,100770.41
2023-06-26T14:32:52.617Z,100780.00
2023-06-26T14:35:19.381Z,100799.84
2023-06-26T14:37:45.852Z,100801.34
2023-06-26T14:40:12.915Z,100813.84
2023-06-26T14:42:39.846Z,100799.50
2023-06-26T14:45:07.528Z,100730.50
2023-06-26T14:47:34.693Z,100750.81
2023-06-26T14:50:01.443Z,100752.19
2023-06-26T14:52:27.946Z,100750.91
2023-06-26T14:54:54.448Z,100746.09
2023-06-26T14:57:20.948Z,100741.50
2023-06-26T14:59:47.554Z,100746.66
2023-06-26T15:02:14.092Z,100751.25
2023-06-26T15:04:40.582Z,100745.19
2023-06-26T15:07:07.060Z,100752.13
2023-06-26T15:09:33.591Z,100762.16
2023-06-26T15:12:00.236Z,100760.88
2023-06-26T15:14:26.693Z,100757.34
2023-06-26T15:16:53.341Z,100747.56
2023-06-26T15:19:19.976Z,100769.38
2023-06-26T15:21:46.490Z,100774.63
2023-06-26T15:24:12.983Z,100773.78
2023-06-26T15:26:39.569Z,100774.88
2023-06-26T15:29:06.528Z,100781.31
2023-06-26T15:31:33.191Z,100787.59
2023-06-26T15:33:59.723Z,100796.06
2023-06-26T15:36:27.138Z,100802.25
2023-06-26T15:38:53.676Z,100802.25
2023-06-26T15:41:20.208Z,100808.78
2023-06-26T15:43:46.729Z,100819.28
2023-06-26T15:46:13.220Z,100814.19
2023-06-26T15:48:41.880Z,100811.84
2023-06-26T15:51:08.756Z,100818.19
2023-06-26T15:53:38.401Z,100826.66
2023-06-26T15:56:09.868Z,100826.66
2023-06-26T15:58:36.954Z,100823.97
2023-06-26T16:01:04.220Z,100818.94
2023-06-26T16:03:31.064Z,100813.19
2023-06-26T16:05:57.535Z,100813.56
2023-06-26T16:08:24.148Z,100816.22
2023-06-26T16:10:50.672Z,100814.59
2023-06-26T16:13:19.717Z,100812.13
2023-06-26T16:15:46.925Z,100812.00
2023-06-26T16:18:13.400Z,100813.94
2023-06-26T16:20:39.867Z,100814.50
2023-06-26T16:23:06.323Z,100807.66
2023-06-26T16:25:32.857Z,100810.03
2023-06-26T16:27:59.786Z,100812.19
2023-06-26T16:30:26.300Z,100811.25
2023-06-26T16:32:54.668Z,100814.25
2023-06-26T16:35:21.207Z,100809.16
2023-06-26T16:37:47.672Z,100795.81
2023-06-26T16:40:15.332Z,100793.97
2023-06-26T16:42:41.890Z,100801.53
2023-06-26T16:45:09.330Z,100815.72
2023-06-26T16:47:38.673Z,100804.47
2023-06-26T16:50:07.404Z,100806.03
2023-06-26T16:52:33.875Z,100802.25
2023-06-26T16:55:00.364Z,100805.00
2023-06-26T16:57:26.838Z,100801.13
2023-06-26T16:59:53.989Z,100804.09
2023-06-26T17:02:20.610Z,100808.38
2023-06-26T17:04:47.108Z,100816.59
2023-06-26T17:07:13.622Z,100815.13
2023-06-26T17:09:40.141Z,100817.78
2023-06-26T17:12:06.964Z,100816.66
2023-06-26T17:14:33.424Z,100826.56
2023-06-26T17:16:59.876Z,100817.03
2023-06-26T17:19:26.598Z,100821.09
2023-06-26T17:21:53.127Z,100822.50
2023-06-26T17:24:19.667Z,100824.69
2023-06-26T17:26:46.133Z,100822.88
2023-06-26T17:29:12.639Z,100822.88
2023-06-26T17:31:41.452Z,100834.75
2023-06-26T17:34:08.440Z,100841.38
2023-06-26T17:36:34.894Z,100848.31
2023-06-26T17:39:03.485Z,100850.34
2023-06-26T17:41:29.964Z,100847.56
2023-06-26T17:43:56.415Z,100855.50
2023-06-26T17:46:22.975Z,100852.09
2023-06-26T17:48:49.523Z,100853.28
2023-06-26T17:51:16.023Z,100866.91
2023-06-26T17:53:42.494Z,100870.22
2023-06-26T17:56:08.980Z,100877.69
2023-06-26T17:58:35.662Z,100887.94
2023-06-26T18:01:02.174Z,100891.97
2023-06-26T18:03:28.959Z,100878.16
2023-06-26T18:05:55.555Z,100874.09
2023-06-26T18:08:22.052Z,100880.38
2023-06-26T18:10:48.575Z,100887.72
2023-06-26T18:13:15.099Z,100895.75
2023-06-26T18:15:41.603Z,100901.09
2023-06-26T18:18:08.122Z,100887.63
2023-06-26T18:20:34.697Z,100897.84
2023-06-26T18:23:01.163Z,100894.88
2023-06-26T18:25:27.629Z,100890.94
2023-06-26T18:27:54.134Z,100897.72
2023-06-26T18:30:20.611Z,100902.34
2023-06-26T18:32:47.337Z,100905.41
2023-06-26T18:35:13.925Z,100906.19
2023-06-26T18:37:40.555Z,100894.47
2023-06-26T18:40:09.786Z,100896.59
2023-06-26T18:42:36.260Z,100906.06
2023-06-26T18:45:02.719Z,100909.44
2023-06-26T18:47:29.600Z,100903.91
2023-06-26T18:49:56.101Z,100908.69
2023-06-26T18:52:22.559Z,100910.25
2023-06-26T18:54:49.021Z,100912.72
2023-06-26T18:57:15.687Z,100920.69
2023-06-26T18:59:42.187Z,100925.81
2023-06-26T19:02:08.645Z,100921.66
2023-06-26T19:04:35.171Z,100931.25
2023-06-26T19:07:02.087Z,100934.34
2023-06-26T19:09:28.689Z,100928.53
2023-06-26T19:11:55.165Z,100934.22
2023-06-26T19:14:21.633Z,100943.28
2023-06-26T19:16:48.157Z,100950.97
2023-06-26T19:19:14.692Z,100950.88
2023-06-26T19:21:41.258Z,100952.75
2023-06-26T19:24:07.876Z,100943.75
2023-06-26T19:26:35.731Z,100955.13
2023-06-26T19:29:03.237Z,100952.03
2023-06-26T19:31:29.738Z,100960.56
2023-06-26T19:33:56.294Z,100966.28
2023-06-26T19:36:22.952Z,100966.97
2023-06-26T19:38:49.450Z,100957.47
2023-06-26T19:41:15.912Z,100958.78
2023-06-26T19:43:42.394Z,100967.31
2023-06-26T19:46:08.845Z,100976.41
2023-06-26T19:48:37.451Z,100974.25
2023-06-26T19:51:04.478Z,100969.25
2023-06-26T19:53:31.129Z,100975.09
2023-06-26T19:55:57.731Z,100983.31
2023-06-26T19:58:24.191Z,100980.53
2023-06-26T20:00:50.630Z,100982.19
2023-06-26T20:03:17.273Z,100985.25
2023-06-26T20:05:44.265Z,100972.44
2023-06-26T20:08:10.772Z,100987.25
2023-06-26T20:10:37.309Z,100977.38
2023-06-26T20:13:03.764Z,100983.56
2023-06-26T20:15:30.296Z,100993.25
2023-06-26T20:17:56.808Z,100986.97
2023-06-26T20:20:23.333Z,100982.47
2023-06-26T20:22:50.488Z,100984.28
2023-06-26T20:25:16.973Z,100976.16
2023-06-26T20:27:43.429Z,100981.16
2023-06-26T20:30:10.337Z,100983.50
2023-06-26T20:32:36.827Z,100968.25
2023-06-26T20:35:03.364Z,100966.94
2023-06-26T20:37:29.830Z,100970.78
2023-06-26T20:39:56.470Z,100979.50
2023-06-26T20:42:23.246Z,100991.22
2023-06-26T20:44:51.349Z,100995.47
2023-06-26T20:47:20.177Z,100990.25
2023-06-26T20:49:47.214Z,100987.44
2023-06-26T20:52:18.029Z,100992.69
2023-06-26T20:54:45.423Z,100992.88
2023-06-26T20:57:11.953Z,100989.97
2023-06-26T20:59:39.690Z,100999.44
2023-06-26T21:02:06.746Z,100998.75
2023-06-26T21:04:36.523Z,101001.84
2023-06-26T21:07:06.108Z,101001.66
2023-06-26T21:09:32.660Z,101005.13
2023-06-26T21:11:59.693Z,101004.38
2023-06-26T21:14:26.198Z,100997.22
2023-06-26T21:16:52.646Z,101006.56
2023-06-26T21:19:19.142Z,101009.13
2023-06-26T21:21:45.623Z,101007.97
2023-06-26T21:24:12.085Z,101014.53
2023-06-26T21:26:39.504Z,101017.38
2023-06-26T21:29:06.133Z,101015.69
2023-06-26T21:31:32.644Z,101027.66
2023-06-26T21:33:59.651Z,101032.91
2023-06-26T21:36:26.137Z,101042.53
2023-06-26T21:38:52.589Z,101036.25
2023-06-26T21:41:19.216Z,101046.38
2023-06-26T21:43:46.291Z,101037.09
2023-06-26T21:46:12.772Z,101036.81
2023-06-26T21:48:39.774Z,101041.34
2023-06-26T21:51:06.250Z,101039.53
2023-06-26T21:53:32.719Z,101036.88
2023-06-26T21:55:59.177Z,101034.84
2023-06-26T21:58:25.662Z,101045.06
2023-06-26T22:00:52.231Z,101044.75
2023-06-26T22:03:18.979Z,101040.56
2023-06-26T22:05:45.543Z,101044.22
2023-06-26T22:08:12.229Z,101046.75
2023-06-26T22:10:38.823Z,101047.28
2023-06-26T22:13:05.454Z,101038.31
2023-06-26T22:15:31.921Z,101041.94
2023-06-26T22:17:58.442Z,101042.66
2023-06-26T22:20:25.369Z,101043.84
2023-06-26T22:22:52.533Z,101055.34
2023-06-26T22:25:19.988Z,101049.16
2023-06-26T22:27:48.221Z,101045.31
2023-06-26T22:30:15.779Z,101058.19
2023-06-26T22:32:43.746Z,101063.66
2023-06-26T22:35:12.912Z,101060.19
2023-06-26T22:37:39.996Z,101054.72
2023-06-26T22:40:08.449Z,101061.03
2023-06-26T22:42:36.106Z,101060.06
2023-06-26T22:45:03.615Z,101064.72
2023-06-26T22:47:30.268Z,101060.91
2023-06-26T22:49:57.509Z,101062.25
2023-06-26T22:52:23.992Z,101058.38
2023-06-26T22:54:50.990Z,101053.06
2023-06-26T22:57:17.515Z,101066.06
2023-06-26T22:59:44.115Z,101063.09
2023-06-26T23:02:10.586Z,101059.59
2023-06-26T23:04:37.137Z,101063.94
2023-06-26T23:07:03.949Z,101065.75
2023-06-26T23:09:30.651Z,101067.09
2023-06-26T23:11:57.146Z,101071.09
2023-06-26T23:14:23.655Z,101069.41
2023-06-26T23:17:04.332Z,101076.38
2023-06-26T23:19:35.400Z,101077.22
2023-06-26T23:22:02.925Z,101084.75
2023-06-26T23:24:33.580Z,101085.25
2023-06-26T23:27:00.965Z,101079.03
2023-06-26T23:29:27.649Z,101073.22
2023-06-26T23:31:54.258Z,101080.25
2023-06-26T23:34:20.954Z,101075.88
2023-06-26T23:36:50.642Z,101078.03
2023-06-26T23:39:20.750Z,101077.19
2023-06-26T23:41:51.181Z,101082.22
2023-06-26T23:44:21.256Z,101075.34
2023-06-26T23:46:48.976Z,101081.69
2023-06-26T23:49:16.163Z,101084.84
2023-06-26T23:51:42.613Z,101083.84
2023-06-26T23:54:09.056Z,101077.50
2023-06-26T23:56:35.550Z,101077.00
2023-06-26T23:59:02.003Z,101084.34
